Time;durP1;ratioP1;P1;durP2;ratioP2;P2;SDS_P1;SDS_P2;PMS_P1;PMS_P2;Temp;Humidity;BMP_temperature;BMP_pressure;BME280_temperature;BME280_humidity;BME280_pressure;Samples;Min_cycle;Max_cycle;Signal;HPM_P1;HPM_P2
2021/12/30 00:01:19;;;;;;;;;;;;;;;16.50;62.10;100119.41;4934349;28;6994;-72
2021/12/30 00:03:48;;;;;;;;;;;;;;;16.51;62.00;100131.47;4959674;28;8465;-72
2021/12/30 00:06:17;;;;;;;;;;;;;;;16.51;62.17;100136.66;4928634;28;6877;-72
2021/12/30 00:08:43;;;;;;;;;;;;;;;16.52;61.91;100147.03;4960709;28;8596;-72
2021/12/30 00:11:10;;;;;;;;;;;;;;;16.54;62.06;100143.63;4960544;28;6956;-72
2021/12/30 00:13:39;;;;;;;;;;;;;;;16.56;62.04;100134.16;4962160;28;7233;-72
2021/12/30 00:16:05;;;;;;;;;;;;;;;16.56;61.97;100139.34;4959461;28;7134;-72
2021/12/30 00:18:31;;;;;;;;;;;;;;;16.56;61.88;100150.53;4963097;28;6816;-72
2021/12/30 00:20:57;;;;;;;;;;;;;;;16.56;61.81;100142.78;4960477;28;6795;-72
2021/12/30 00:23:23;;;;;;;;;;;;;;;16.55;61.34;100143.63;4961121;28;6938;-72
2021/12/30 00:25:50;;;;;;;;;;;;;;;16.53;62.16;100150.47;4960829;28;6800;-72
2021/12/30 00:28:26;;;;;;;;;;;;;;;16.54;61.63;100146.19;4963023;28;7190;-72
2021/12/30 00:30:54;;;;;;;;;;;;;;;16.49;61.36;100134.03;4960111;28;6987;-72
2021/12/30 00:33:22;;;;;;;;;;;;;;;16.46;61.29;100152.09;4959182;28;7149;-72
2021/12/30 00:35:49;;;;;;;;;;;;;;;16.43;61.45;100158.91;4963501;28;6831;-72
2021/12/30 00:38:15;;;;;;;;;;;;;;;16.41;61.95;100166.63;4959773;28;7251;-72
2021/12/30 00:40:41;;;;;;;;;;;;;;;16.38;62.05;100161.41;4961433;28;6804;-72
2021/12/30 00:43:07;;;;;;;;;;;;;;;16.35;61.87;100163.94;4944049;28;6914;-72
2021/12/30 00:45:36;;;;;;;;;;;;;;;16.31;61.85;100159.53;4957531;28;6873;-72
2021/12/30 00:48:03;;;;;;;;;;;;;;;16.25;62.08;100168.03;4957099;28;7969;-72
2021/12/30 00:50:30;;;;;;;;;;;;;;;16.21;61.76;100168.81;4958676;28;7649;-72
2021/12/30 00:52:58;;;;;;;;;;;;;;;16.20;61.98;100173.09;4958873;28;9038;-72
2021/12/30 00:55:25;;;;;;;;;;;;;;;16.22;62.16;100161.09;4958800;28;6898;-72
2021/12/30 00:57:50;;;;;;;;;;;;;;;16.26;62.51;100166.31;4959581;28;7326;-72
2021/12/30 01:00:20;;;;;;;;;;;;;;;16.31;62.48;100172.44;4961670;28;7213;-72
2021/12/30 01:02:47;;;;;;;;;;;;;;;16.35;62.37;100176.88;4956873;28;7009;-72
2021/12/30 01:05:14;;;;;;;;;;;;;;;16.40;62.19;100170.06;4958765;28;7246;-72
2021/12/30 01:07:40;;;;;;;;;;;;;;;16.44;62.71;100166.72;4944343;28;6804;-72
2021/12/30 01:10:12;;;;;;;;;;;;;;;16.50;62.54;100171.97;4958439;28;6880;-72
2021/12/30 01:12:38;;;;;;;;;;;;;;;16.56;62.78;100176.41;4961045;28;6820;-72
2021/12/30 01:15:10;;;;;;;;;;;;;;;16.61;62.20;100185.16;4959248;28;6800;-72
2021/12/30 01:20:15;;;;;;;;;;;;;;;16.66;62.59;100190.41;4959858;28;6812;-72
2021/12/30 01:22:41;;;;;;;;;;;;;;;16.66;62.07;100196.47;4958185;28;7183;-72
2021/12/30 01:25:09;;;;;;;;;;;;;;;16.66;62.66;100205.94;4959015;28;7391;-72
2021/12/30 01:27:40;;;;;;;;;;;;;;;16.69;62.66;100208.56;4956307;28;6945;-72
2021/12/30 01:30:11;;;;;;;;;;;;;;;16.74;63.00;100211.25;4957906;28;6824;-72
2021/12/30 01:32:38;;;;;;;;;;;;;;;16.78;62.55;100201.00;4959224;28;7256;-72
2021/12/30 01:35:08;;;;;;;;;;;;;;;16.84;62.59;100202.81;4940128;28;6808;-72
2021/12/30 01:37:34;;;;;;;;;;;;;;;16.89;62.52;100210.69;4956514;28;6812;-72
2021/12/30 01:40:00;;;;;;;;;;;;;;;16.94;63.11;100201.28;4959824;28;6804;-72
2021/12/30 01:42:26;;;;;;;;;;;;;;;16.99;62.66;100207.41;4959618;28;6796;-72
2021/12/30 01:44:52;;;;;;;;;;;;;;;17.04;62.77;100211.00;4957838;28;6798;-72
2021/12/30 01:47:18;;;;;;;;;;;;;;;17.08;62.94;100211.94;4939231;28;7014;-72
2021/12/30 01:49:44;;;;;;;;;;;;;;;17.10;62.90;100205.06;4959318;28;6800;-72
2021/12/30 01:52:09;;;;;;;;;;;;;;;17.12;62.96;100212.88;4957671;28;6807;-72
2021/12/30 01:54:36;;;;;;;;;;;;;;;17.13;62.61;100219.78;4959167;28;7340;-72
2021/12/30 01:57:06;;;;;;;;;;;;;;;17.12;63.14;100220.63;4958928;28;7135;-72
2021/12/30 01:59:32;;;;;;;;;;;;;;;17.13;63.31;100214.63;4958298;28;7730;-72
2021/12/30 02:01:58;;;;;;;;;;;;;;;17.14;63.33;100216.34;4960376;28;6879;-72
2021/12/30 02:04:25;;;;;;;;;;;;;;;17.14;63.31;100208.59;4956068;28;7742;-72
2021/12/30 02:06:53;;;;;;;;;;;;;;;17.14;63.16;100203.41;4958675;28;6982;-72
2021/12/30 02:09:20;;;;;;;;;;;;;;;17.13;63.18;100196.50;4955270;28;6868;-72
2021/12/30 02:11:47;;;;;;;;;;;;;;;17.11;63.80;100198.19;4960052;28;6894;-72
2021/12/30 02:14:14;;;;;;;;;;;;;;;17.06;63.41;100193.78;4944042;28;6880;-72
2021/12/30 02:16:40;;;;;;;;;;;;;;;17.05;63.43;100194.63;4955063;28;6804;-72
2021/12/30 02:19:06;;;;;;;;;;;;;;;17.01;64.03;100189.38;4960469;28;6808;-72
2021/12/30 02:21:31;;;;;;;;;;;;;;;16.98;63.74;100181.53;4942390;28;6918;-72
2021/12/30 02:23:58;;;;;;;;;;;;;;;16.95;64.30;100179.75;4958057;28;6777;-72
2021/12/30 02:26:25;;;;;;;;;;;;;;;16.94;63.98;100194.38;4955531;28;7027;-72
2021/12/30 02:28:51;;;;;;;;;;;;;;;16.93;63.89;100189.19;4957405;28;6959;-72
2021/12/30 02:31:26;;;;;;;;;;;;;;;16.92;64.83;100188.31;4976274;28;6884;-72
2021/12/30 02:33:55;;;;;;;;;;;;;;;16.89;64.18;100183.09;4944071;28;7249;-72
2021/12/30 02:36:32;;;;;;;;;;;;;;;16.90;64.56;100194.28;4941575;28;6808;-72
2021/12/30 02:39:01;;;;;;;;;;;;;;;16.90;64.69;100202.94;4960496;28;7169;-72
2021/12/30 02:41:27;;;;;;;;;;;;;;;16.89;64.95;100206.38;4940628;28;6976;-72
2021/12/30 02:43:53;;;;;;;;;;;;;;;16.91;65.08;100206.44;4958265;28;6796;-72
2021/12/30 02:46:28;;;;;;;;;;;;;;;16.92;65.22;100203.84;4955940;28;6836;-72
2021/12/30 02:48:55;;;;;;;;;;;;;;;16.94;65.43;100209.91;4943171;28;7220;-72
2021/12/30 02:51:22;;;;;;;;;;;;;;;16.96;65.25;100206.50;4957030;28;6967;-72
2021/12/30 02:53:49;;;;;;;;;;;;;;;16.98;65.51;100190.13;4955787;28;6872;-72
2021/12/30 02:56:16;;;;;;;;;;;;;;;16.99;65.74;100197.06;4957368;28;7144;-72
2021/12/30 02:58:41;;;;;;;;;;;;;;;17.00;65.36;100204.03;4941483;28;7187;-72
2021/12/30 03:01:16;;;;;;;;;;;;;;;17.00;65.62;100197.94;4957732;28;6955;-72
2021/12/30 03:03:43;;;;;;;;;;;;;;;17.01;65.52;100202.31;4955922;28;6815;-72
2021/12/30 03:06:12;;;;;;;;;;;;;;;17.02;65.52;100202.34;4940637;28;7202;-72
2021/12/30 03:08:39;;;;;;;;;;;;;;;17.03;65.47;100204.09;4946392;28;6816;-72
2021/12/30 03:11:05;;;;;;;;;;;;;;;17.05;65.76;100202.38;4965726;28;7169;-72
2021/12/30 03:13:32;;;;;;;;;;;;;;;17.06;65.71;100196.38;4966357;28;6876;-72
2021/12/30 03:16:08;;;;;;;;;;;;;;;17.07;65.25;100200.69;4967266;28;6950;-72
2021/12/30 03:18:36;;;;;;;;;;;;;;;17.07;65.63;100208.47;4967986;28;6808;-72
2021/12/30 03:21:06;;;;;;;;;;;;;;;17.08;65.69;100212.78;4966958;28;7426;-72
2021/12/30 03:23:32;;;;;;;;;;;;;;;17.08;65.64;100197.25;4966369;28;6976;-72
2021/12/30 03:25:58;;;;;;;;;;;;;;;17.10;65.51;100209.38;4961520;28;6819;-72
2021/12/30 03:28:24;;;;;;;;;;;;;;;17.11;65.72;100209.41;4967281;28;6792;-72
2021/12/30 03:30:51;;;;;;;;;;;;;;;17.11;65.70;100208.53;4969098;28;6791;-72
2021/12/30 03:33:20;;;;;;;;;;;;;;;17.10;65.56;100205.06;4970477;28;7015;-72
2021/12/30 03:35:46;;;;;;;;;;;;;;;17.11;65.84;100214.56;4965995;28;6820;-73
2021/12/30 03:38:12;;;;;;;;;;;;;;;17.12;65.87;100218.06;4952439;28;7324;-73
2021/12/30 03:40:38;;;;;;;;;;;;;;;17.13;66.26;100215.47;4965717;28;6961;-73
2021/12/30 03:43:04;;;;;;;;;;;;;;;17.16;65.93;100210.38;4951774;28;6867;-73
2021/12/30 03:45:30;;;;;;;;;;;;;;;17.18;66.14;100215.56;4965361;28;6804;-73
2021/12/30 03:47:56;;;;;;;;;;;;;;;17.19;66.20;100217.28;4962319;28;6859;-73
2021/12/30 03:50:29;;;;;;;;;;;;;;;17.20;65.97;100208.72;4967708;28;7120;-73
2021/12/30 03:53:02;;;;;;;;;;;;;;;17.22;66.34;100214.78;4966104;28;7848;-73
2021/12/30 03:55:30;;;;;;;;;;;;;;;17.23;66.62;100206.16;4969354;28;7295;-72
2021/12/30 03:57:57;;;;;;;;;;;;;;;17.25;66.13;100219.16;4969309;28;6900;-73
2021/12/30 04:00:26;;;;;;;;;;;;;;;17.26;66.60;100224.34;4966805;28;6988;-73
2021/12/30 04:02:52;;;;;;;;;;;;;;;17.30;66.75;100231.31;4949658;28;8354;-73
2021/12/30 04:05:18;;;;;;;;;;;;;;;17.32;66.52;100237.41;4966404;28;7015;-73
2021/12/30 04:07:45;;;;;;;;;;;;;;;17.32;66.30;100233.94;4941785;28;7357;-73
2021/12/30 04:10:13;;;;;;;;;;;;;;;17.34;66.61;100234.84;4963082;28;7038;-73
2021/12/30 04:12:40;;;;;;;;;;;;;;;17.37;66.94;100241.78;4963176;28;6820;-73
2021/12/30 04:15:08;;;;;;;;;;;;;;;17.39;66.98;100237.53;4966332;28;6796;-73
2021/12/30 04:17:34;;;;;;;;;;;;;;;17.41;66.73;100241.00;4963691;28;6880;-73
2021/12/30 04:19:59;;;;;;;;;;;;;;;17.42;66.64;100242.75;4948578;28;7880;-73
2021/12/30 04:22:26;;;;;;;;;;;;;;;17.44;66.87;100228.09;4961911;28;6835;-73
2021/12/30 04:24:51;;;;;;;;;;;;;;;17.45;66.82;100238.50;4962413;28;6835;-73
2021/12/30 04:27:17;;;;;;;;;;;;;;;17.47;66.56;100226.44;4961461;28;7127;-73
2021/12/30 04:29:43;;;;;;;;;;;;;;;17.48;66.73;100233.34;4963447;28;6772;-73
2021/12/30 04:32:09;;;;;;;;;;;;;;;17.52;66.77;100233.41;4959981;28;7011;-73
2021/12/30 04:34:35;;;;;;;;;;;;;;;17.52;66.81;100229.09;4944699;28;6864;-73
2021/12/30 04:37:01;;;;;;;;;;;;;;;17.53;66.67;100233.44;4960133;28;6799;-73
2021/12/30 04:39:29;;;;;;;;;;;;;;;17.56;67.18;100230.03;4962054;28;6795;-73
2021/12/30 04:41:58;;;;;;;;;;;;;;;17.57;66.95;100234.38;4960496;28;6827;-74
2021/12/30 04:44:25;;;;;;;;;;;;;;;17.58;66.88;100224.03;4959273;28;7242;-73
2021/12/30 04:46:51;;;;;;;;;;;;;;;17.60;67.06;100248.25;4974402;28;7201;-73
2021/12/30 04:49:16;;;;;;;;;;;;;;;17.62;67.25;100256.03;4960546;28;6935;-73
2021/12/30 04:51:42;;;;;;;;;;;;;;;17.65;66.67;100268.16;4957438;28;8021;-73
2021/12/30 04:54:08;;;;;;;;;;;;;;;17.66;66.86;100256.94;4973487;28;7274;-73
2021/12/30 04:56:34;;;;;;;;;;;;;;;17.68;66.83;100268.25;4943274;28;6788;-73
2021/12/30 04:58:59;;;;;;;;;;;;;;;17.68;67.01;100274.28;4962139;28;6792;-73
2021/12/30 05:01:25;;;;;;;;;;;;;;;17.70;66.53;100269.13;4944359;28;6815;-73
2021/12/30 05:03:50;;;;;;;;;;;;;;;17.72;66.77;100272.63;4958309;28;6884;-73
2021/12/30 05:06:16;;;;;;;;;;;;;;;17.73;66.43;100272.66;4959843;28;7048;-73
2021/12/30 05:08:42;;;;;;;;;;;;;;;17.74;67.08;100266.63;4962751;28;6792;-73
2021/12/30 05:11:08;;;;;;;;;;;;;;;17.74;66.68;100276.09;4957242;28;7130;-73
2021/12/30 05:13:33;;;;;;;;;;;;;;;17.75;66.83;100273.53;4956656;28;7845;-73
2021/12/30 05:15:59;;;;;;;;;;;;;;;17.76;66.95;100282.16;4958984;28;6992;-73
2021/12/30 05:18:31;;;;;;;;;;;;;;;17.75;66.92;100275.25;4959234;28;6971;-73
2021/12/30 05:21:04;;;;;;;;;;;;;;;17.76;66.72;100284.75;4976963;28;7893;-73
2021/12/30 05:23:31;;;;;;;;;;;;;;;17.77;66.61;100274.44;4953475;28;6927;-73
2021/12/30 05:25:57;;;;;;;;;;;;;;;17.77;66.83;100276.16;4957758;28;6827;-73
2021/12/30 05:28:23;;;;;;;;;;;;;;;17.80;66.89;100280.50;4959534;28;6816;-73
2021/12/30 05:30:49;;;;;;;;;;;;;;;17.79;66.64;100283.94;4973668;28;6884;-73
2021/12/30 05:33:16;;;;;;;;;;;;;;;17.80;66.92;100296.06;4959448;28;6807;-73
2021/12/30 05:35:42;;;;;;;;;;;;;;;17.79;66.82;100295.19;4961105;28;7312;-73
2021/12/30 05:38:08;;;;;;;;;;;;;;;17.81;67.28;100292.63;4952453;28;6962;-73
2021/12/30 05:40:34;;;;;;;;;;;;;;;17.81;66.49;100296.09;4960139;28;7175;-73
2021/12/30 05:43:01;;;;;;;;;;;;;;;17.81;67.13;100293.50;4956344;28;7213;-73
2021/12/30 05:45:27;;;;;;;;;;;;;;;17.84;66.81;100303.06;4956321;28;7158;-74
2021/12/30 05:47:54;;;;;;;;;;;;;;;17.84;66.86;100308.25;4955841;28;6783;-73
2021/12/30 05:50:24;;;;;;;;;;;;;;;17.85;66.74;100310.84;4959060;28;6815;-73
2021/12/30 05:52:50;;;;;;;;;;;;;;;17.87;66.73;100308.28;4972758;28;9575;-73
2021/12/30 05:55:17;;;;;;;;;;;;;;;17.88;66.78;100310.03;4957657;28;7152;-73
2021/12/30 05:57:44;;;;;;;;;;;;;;;17.89;66.70;100307.47;4957914;28;6976;-73
2021/12/30 06:00:15;;;;;;;;;;;;;;;17.90;66.74;100309.22;4957267;28;7193;-73
2021/12/30 06:02:42;;;;;;;;;;;;;;;17.90;66.90;100321.28;4955563;28;6812;-73
2021/12/30 06:05:08;;;;;;;;;;;;;;;17.90;66.93;100311.81;4957804;28;6904;-74
2021/12/30 06:07:34;;;;;;;;;;;;;;;17.91;67.13;100313.53;4957846;28;7275;-73
2021/12/30 06:10:00;;;;;;;;;;;;;;;17.91;66.91;100315.25;4959933;28;6783;-73
2021/12/30 06:12:26;;;;;;;;;;;;;;;17.92;67.14;100327.41;4964714;28;6806;-73
2021/12/30 06:14:51;;;;;;;;;;;;;;;17.91;66.63;100323.03;4957299;28;7092;-73
2021/12/30 06:17:17;;;;;;;;;;;;;;;17.93;66.54;100333.44;4940831;28;7853;-73
2021/12/30 06:19:44;;;;;;;;;;;;;;;17.94;66.48;100336.06;4957477;28;6792;-73
2021/12/30 06:22:12;;;;;;;;;;;;;;;17.94;66.34;100335.19;4960496;28;8253;-73
2021/12/30 06:24:39;;;;;;;;;;;;;;;17.94;67.00;100330.00;4958341;28;7900;-73
2021/12/30 06:27:06;;;;;;;;;;;;;;;17.95;67.10;100339.50;4941593;28;6854;-73
2021/12/30 06:29:33;;;;;;;;;;;;;;;17.95;66.79;100343.00;4942792;28;6792;-73
2021/12/30 06:31:59;;;;;;;;;;;;;;;17.97;66.20;100343.88;4953841;28;7479;-73
2021/12/30 06:34:24;;;;;;;;;;;;;;;17.97;66.45;100346.47;4958306;28;6796;-73
2021/12/30 06:36:50;;;;;;;;;;;;;;;17.98;66.60;100343.03;4950719;28;6915;-73
2021/12/30 06:39:16;;;;;;;;;;;;;;;17.95;66.36;100340.41;4940333;28;6821;-73
2021/12/30 06:41:41;;;;;;;;;;;;;;;17.95;66.32;100335.22;4957821;28;7860;-74
2021/12/30 06:44:07;;;;;;;;;;;;;;;17.95;66.52;100345.59;4959028;28;7007;-74
2021/12/30 06:46:34;;;;;;;;;;;;;;;17.95;66.29;100348.19;4954078;28;6895;-74
2021/12/30 06:48:59;;;;;;;;;;;;;;;17.94;66.95;100340.34;4975323;28;6831;-73
2021/12/30 06:51:27;;;;;;;;;;;;;;;17.95;66.75;100342.09;4959922;28;6807;-73
2021/12/30 06:53:55;;;;;;;;;;;;;;;17.95;66.57;100337.81;4960450;28;6903;-73
2021/12/30 06:56:23;;;;;;;;;;;;;;;17.95;66.15;100332.63;4951654;28;6819;-74
2021/12/30 06:58:49;;;;;;;;;;;;;;;17.94;66.56;100332.59;4958222;28;7204;-74
2021/12/30 07:01:14;;;;;;;;;;;;;;;17.93;66.69;100329.13;4958556;28;6932;-74
2021/12/30 07:03:40;;;;;;;;;;;;;;;17.95;66.86;100336.91;4960076;28;6808;-74
2021/12/30 07:06:07;;;;;;;;;;;;;;;17.93;66.48;100338.63;4941649;28;7450;-74
2021/12/30 07:08:33;;;;;;;;;;;;;;;17.93;66.74;100336.03;4958121;28;8004;-74
2021/12/30 07:10:58;;;;;;;;;;;;;;;17.92;66.22;100348.13;4956518;28;7192;-74
2021/12/30 07:13:24;;;;;;;;;;;;;;;17.94;66.76;100342.94;4955811;28;8067;-74
2021/12/30 07:15:50;;;;;;;;;;;;;;;17.94;66.33;100353.31;4936053;28;6846;-74
2021/12/30 07:18:15;;;;;;;;;;;;;;;17.94;66.92;100353.31;4956346;28;8364;-73
2021/12/30 07:20:41;;;;;;;;;;;;;;;17.94;66.57;100355.91;4955147;28;7139;-73
2021/12/30 07:23:07;;;;;;;;;;;;;;;17.95;66.31;100361.13;4943041;28;7089;-73
2021/12/30 07:25:33;;;;;;;;;;;;;;;17.97;66.31;100366.38;4941007;28;6776;-73
2021/12/30 07:27:58;;;;;;;;;;;;;;;17.98;66.31;100371.56;4959482;28;6796;-74
2021/12/30 07:30:25;;;;;;;;;;;;;;;17.98;66.28;100370.69;4956159;28;6792;-74
2021/12/30 07:32:52;;;;;;;;;;;;;;;17.98;66.01;100379.34;4958351;28;7186;-74
2021/12/30 07:35:21;;;;;;;;;;;;;;;17.97;66.77;100369.81;4959590;28;6796;-74
2021/12/30 07:37:49;;;;;;;;;;;;;;;17.98;66.01;100384.50;4942936;28;7268;-73
2021/12/30 07:40:16;;;;;;;;;;;;;;;17.99;66.72;100390.59;4957960;28;6839;-73
2021/12/30 07:42:42;;;;;;;;;;;;;;;18.01;66.31;100399.25;4959036;28;7027;-73
2021/12/30 07:45:09;;;;;;;;;;;;;;;18.01;66.56;100388.88;4942921;28;6962;-73
2021/12/30 07:47:36;;;;;;;;;;;;;;;18.02;66.63;100393.22;4958340;28;6825;-73
2021/12/30 07:50:03;;;;;;;;;;;;;;;18.02;66.04;100403.59;4956985;28;8786;-73
2021/12/30 07:52:29;;;;;;;;;;;;;;;18.03;66.15;100414.03;4944080;28;6892;-73
2021/12/30 07:54:55;;;;;;;;;;;;;;;18.06;66.43;100430.50;4955754;28;7332;-73
2021/12/30 07:57:22;;;;;;;;;;;;;;;18.07;66.31;100429.66;4960098;28;7094;-73
2021/12/30 07:59:53;;;;;;;;;;;;;;;18.07;66.08;100435.72;4961472;28;7164;-73
2021/12/30 08:02:19;;;;;;;;;;;;;;;18.08;66.17;100431.38;4955455;28;6857;-74
2021/12/30 08:04:46;;;;;;;;;;;;;;;18.08;65.60;100434.88;4946962;28;8155;-74
2021/12/30 08:07:11;;;;;;;;;;;;;;;18.08;66.21;100432.28;4960862;28;6978;-73
2021/12/30 08:09:37;;;;;;;;;;;;;;;18.08;66.17;100436.56;4961954;28;6974;-73
2021/12/30 08:12:04;;;;;;;;;;;;;;;18.08;66.03;100457.31;4962286;28;6807;-73
2021/12/30 08:14:30;;;;;;;;;;;;;;;18.07;65.75;100448.69;4962355;28;7090;-73
2021/12/30 08:16:56;;;;;;;;;;;;;;;18.05;65.89;100447.75;4961937;28;6903;-73
2021/12/30 08:19:22;;;;;;;;;;;;;;;18.06;65.93;100449.53;4961193;28;6955;-74
2021/12/30 08:21:47;;;;;;;;;;;;;;;18.05;65.86;100452.94;4961008;28;6792;-74
2021/12/30 08:24:13;;;;;;;;;;;;;;;18.07;66.37;100451.28;4977671;28;8014;-73
2021/12/30 08:26:40;;;;;;;;;;;;;;;18.08;66.07;100454.72;4958562;28;6871;-73
2021/12/30 08:29:07;;;;;;;;;;;;;;;18.10;66.26;100460.81;4962631;28;8116;-73
2021/12/30 08:31:34;;;;;;;;;;;;;;;18.12;65.90;100459.16;4944045;28;7154;-74
2021/12/30 08:34:01;;;;;;;;;;;;;;;18.13;65.75;100460.88;4961803;28;7331;-74
2021/12/30 08:36:26;;;;;;;;;;;;;;;18.17;65.56;100465.28;4957862;28;7251;-73
2021/12/30 08:38:52;;;;;;;;;;;;;;;18.19;65.90;100466.16;4975823;28;6879;-74
2021/12/30 08:41:18;;;;;;;;;;;;;;;18.23;66.07;100467.97;4960388;28;6891;-73
2021/12/30 08:43:44;;;;;;;;;;;;;;;18.28;65.74;100478.44;4957465;28;6796;-73
2021/12/30 08:46:09;;;;;;;;;;;;;;;18.30;65.39;100477.63;4959794;28;6796;-73
2021/12/30 08:48:37;;;;;;;;;;;;;;;18.33;65.28;100474.19;4961591;28;6811;-73
2021/12/30 08:51:04;;;;;;;;;;;;;;;18.35;65.14;100476.81;4958736;28;6828;-73
2021/12/30 08:53:30;;;;;;;;;;;;;;;18.36;65.41;100475.97;4944703;28;7291;-73
2021/12/30 08:55:56;;;;;;;;;;;;;;;18.38;65.86;100474.25;4959459;28;6803;-73
2021/12/30 08:58:22;;;;;;;;;;;;;;;18.36;65.55;100482.03;4962493;28;7330;-73
2021/12/30 09:00:48;;;;;;;;;;;;;;;18.37;65.48;100475.13;4914767;28;7189;-73
2021/12/30 09:03:16;;;;;;;;;;;;;;;18.37;65.53;100491.56;4956638;28;7057;-72
2021/12/30 09:05:44;;;;;;;;;;;;;;;18.39;65.73;100474.31;4940867;28;6991;-73
2021/12/30 09:08:10;;;;;;;;;;;;;;;18.40;65.59;100481.25;4941379;28;7208;-73
2021/12/30 09:10:40;;;;;;;;;;;;;;;18.42;65.78;100476.94;4961763;28;6824;-72
2021/12/30 09:13:08;;;;;;;;;;;;;;;18.45;65.07;100489.09;4957891;28;6839;-73
2021/12/30 09:15:36;;;;;;;;;;;;;;;18.46;65.06;100472.69;4962225;28;6820;-73
2021/12/30 09:18:03;;;;;;;;;;;;;;;18.52;65.50;100484.88;4956610;28;6816;-72
2021/12/30 09:20:29;;;;;;;;;;;;;;;18.55;65.02;100482.34;4959256;28;7317;-73
2021/12/30 09:22:56;;;;;;;;;;;;;;;18.57;64.86;100486.69;4961976;28;6911;-72
2021/12/30 09:25:24;;;;;;;;;;;;;;;18.60;65.14;100470.31;4966231;28;7196;-72
2021/12/30 09:27:53;;;;;;;;;;;;;;;18.61;64.46;100485.03;4952269;28;6981;-72
2021/12/30 09:30:19;;;;;;;;;;;;;;;18.64;64.93;100484.22;4956295;28;6887;-72
2021/12/30 09:32:51;;;;;;;;;;;;;;;18.66;64.91;100503.28;4958333;28;7296;-72
2021/12/30 09:35:17;;;;;;;;;;;;;;;18.67;64.61;100485.16;4953764;28;6832;-72
2021/12/30 09:37:44;;;;;;;;;;;;;;;18.70;64.35;100498.16;4955104;28;6846;-72
2021/12/30 09:40:14;;;;;;;;;;;;;;;18.71;64.46;100497.31;4958789;28;6820;-72
2021/12/30 09:42:51;;;;;;;;;;;;;;;18.75;64.70;100503.44;4958616;28;7256;-72
2021/12/30 09:45:19;;;;;;;;;;;;;;;18.76;64.12;100502.56;4941721;28;7362;-72
2021/12/30 09:47:54;;;;;;;;;;;;;;;18.77;64.59;100519.03;4933260;28;8359;-72
2021/12/30 09:50:27;;;;;;;;;;;;;;;18.76;64.64;100531.13;4958123;28;6812;-72
2021/12/30 09:52:54;;;;;;;;;;;;;;;18.78;64.65;100510.41;4953472;28;6827;-72
2021/12/30 09:55:21;;;;;;;;;;;;;;;18.79;64.26;100517.34;4956750;28;7363;-72
2021/12/30 09:57:47;;;;;;;;;;;;;;;18.83;64.47;100516.53;4956817;28;7365;-72
2021/12/30 10:00:15;;;;;;;;;;;;;;;18.85;64.35;100520.03;4955882;28;6834;-72
2021/12/30 10:02:43;;;;;;;;;;;;;;;18.90;63.82;100512.31;4939560;28;6894;-72
2021/12/30 10:05:18;;;;;;;;;;;;;;;18.94;63.91;100515.00;4959520;28;7312;-72
2021/12/30 10:07:44;;;;;;;;;;;;;;;18.94;63.59;100517.59;4954240;28;6828;-73
2021/12/30 10:10:35;;;;;;;;;;;;;;;18.97;63.89;100509.84;4955891;28;6815;-73
2021/12/30 10:13:47;;;;;;;;;;;;;;;18.98;63.53;100521.09;4971792;28;7245;-72
2021/12/30 10:16:16;;;;;;;;;;;;;;;19.00;63.25;100515.09;4969717;28;6812;-72
2021/12/30 10:19:00;;;;;;;;;;;;;;;19.03;62.96;100501.28;4956409;28;6900;-72
2021/12/30 10:21:31;;;;;;;;;;;;;;;19.05;63.60;100529.91;4956487;28;6979;-72
2021/12/30 10:24:04;;;;;;;;;;;;;;;19.10;63.53;100528.22;4941679;28;9774;-72
2021/12/30 10:26:29;;;;;;;;;;;;;;;19.15;63.27;100531.78;4955883;28;6812;-72
2021/12/30 10:29:04;;;;;;;;;;;;;;;19.22;63.01;100535.34;4954501;28;6834;-72
2021/12/30 10:31:32;;;;;;;;;;;;;;;19.26;62.63;100530.19;4939396;28;7299;-72
2021/12/30 10:34:09;;;;;;;;;;;;;;;19.31;62.85;100540.66;4951263;28;7150;-72
2021/12/30 10:36:41;;;;;;;;;;;;;;;19.35;61.97;100524.25;4967651;28;6823;-72
2021/12/30 10:39:34;;;;;;;;;;;;;;;19.36;61.55;100543.31;4934729;28;7058;-72
2021/12/30 10:42:05;;;;;;;;;;;;;;;19.35;61.35;100541.59;4950686;28;7271;-72
2021/12/30 10:44:57;;;;;;;;;;;;;;;19.33;61.35;100543.28;4952574;28;6800;-72
2021/12/30 10:47:30;;;;;;;;;;;;;;;19.29;61.78;100543.22;4958303;28;6880;-72
2021/12/30 10:50:03;;;;;;;;;;;;;;;19.28;61.53;100543.22;4957047;28;7022;-72
2021/12/30 10:52:30;;;;;;;;;;;;;;;19.25;61.68;100540.56;4956725;28;7250;-72
2021/12/30 10:55:00;;;;;;;;;;;;;;;19.24;61.13;100547.50;4952628;28;7245;-72
2021/12/30 10:57:30;;;;;;;;;;;;;;;19.23;61.08;100545.75;4955599;28;7084;-72
2021/12/30 10:59:57;;;;;;;;;;;;;;;19.25;61.21;100550.94;4954780;28;6799;-72
2021/12/30 11:02:28;;;;;;;;;;;;;;;19.23;61.04;100550.94;4944768;28;7220;-72
2021/12/30 11:05:02;;;;;;;;;;;;;;;19.22;60.93;100533.63;4951601;28;6800;-72
2021/12/30 11:07:51;;;;;;;;;;;;;;;19.23;61.64;100535.38;4930124;28;6963;-72
2021/12/30 11:10:30;;;;;;;;;;;;;;;19.25;61.15;100538.84;4938597;28;6892;-72
2021/12/30 11:13:11;;;;;;;;;;;;;;;19.29;61.13;100543.22;4956305;28;7153;-72
2021/12/30 11:15:37;;;;;;;;;;;;;;;19.35;60.49;100524.25;4955995;28;6836;-72
2021/12/30 11:18:14;;;;;;;;;;;;;;;19.40;60.74;100532.09;4938181;28;6903;-72
2021/12/30 11:20:49;;;;;;;;;;;;;;;19.43;60.52;100538.22;4956802;28;6899;-72
2021/12/30 11:23:17;;;;;;;;;;;;;;;19.47;60.58;100531.34;4955187;28;7256;-72
2021/12/30 11:25:44;;;;;;;;;;;;;;;19.47;59.81;100544.34;4952562;28;6804;-72
2021/12/30 11:28:11;;;;;;;;;;;;;;;19.48;59.92;100534.84;4938754;28;7137;-72
2021/12/30 11:30:37;;;;;;;;;;;;;;;19.49;59.65;100540.03;4956360;28;6974;-72
2021/12/30 11:33:04;;;;;;;;;;;;;;;19.51;59.67;100553.94;4955370;28;6791;-72
2021/12/30 11:35:30;;;;;;;;;;;;;;;19.52;59.92;100547.00;4934616;28;7016;-72
2021/12/30 11:37:57;;;;;;;;;;;;;;;19.50;59.36;100544.38;4954564;28;7182;-72
2021/12/30 11:40:26;;;;;;;;;;;;;;;19.51;59.65;100543.53;4951844;28;6899;-72
2021/12/30 11:42:58;;;;;;;;;;;;;;;19.50;59.80;100533.97;4959569;28;6808;-71
2021/12/30 11:45:32;;;;;;;;;;;;;;;19.49;59.13;100526.19;4939643;28;6804;-72
2021/12/30 11:48:23;;;;;;;;;;;;;;;19.46;59.72;100523.50;4954935;28;6804;-72
2021/12/30 11:51:12;;;;;;;;;;;;;;;19.45;59.13;100533.06;4959641;28;7947;-72
2021/12/30 11:53:39;;;;;;;;;;;;;;;19.48;59.21;100524.44;4972388;28;6845;-72
2021/12/30 11:56:21;;;;;;;;;;;;;;;19.52;59.43;100528.81;4960598;28;7153;-72
2021/12/30 11:58:50;;;;;;;;;;;;;;;19.55;59.07;100531.44;4956546;28;7194;-72
2021/12/30 12:01:19;;;;;;;;;;;;;;;19.60;58.92;100531.50;4959921;28;6800;-72
2021/12/30 12:03:54;;;;;;;;;;;;;;;19.66;58.83;100516.88;4961899;28;7888;-72
2021/12/30 12:06:25;;;;;;;;;;;;;;;19.69;58.51;100526.41;4960208;28;6882;-72
2021/12/30 12:09:13;;;;;;;;;;;;;;;19.73;57.82;100517.81;4953291;28;6892;-72
2021/12/30 12:11:41;;;;;;;;;;;;;;;19.75;58.47;100520.41;4938885;28;7041;-72
2021/12/30 12:14:32;;;;;;;;;;;;;;;19.77;58.02;100530.00;4958979;28;6879;-72
2021/12/30 12:17:06;;;;;;;;;;;;;;;19.78;57.86;100516.13;4975233;28;6827;-71
2021/12/30 12:19:35;;;;;;;;;;;;;;;19.78;57.80;100515.28;4958117;28;7264;-72
2021/12/30 12:22:25;;;;;;;;;;;;;;;19.79;57.49;100520.47;4942444;28;7322;-71
2021/12/30 12:25:22;;;;;;;;;;;;;;;19.82;57.96;100517.03;4942440;28;7428;-71
2021/12/30 12:27:52;;;;;;;;;;;;;;;19.79;57.73;100520.47;4958309;28;7066;-71
2021/12/30 12:30:24;;;;;;;;;;;;;;;19.82;57.33;100522.25;4961475;28;6832;-72
2021/12/30 12:32:50;;;;;;;;;;;;;;;19.82;57.62;100520.53;4961222;28;6902;-72
2021/12/30 12:35:16;;;;;;;;;;;;;;;19.84;57.61;100521.41;4958479;28;6816;-72
2021/12/30 12:37:41;;;;;;;;;;;;;;;19.87;57.70;100530.97;4961328;28;7047;-72
2021/12/30 12:40:15;;;;;;;;;;;;;;;19.87;57.40;100519.69;4958600;28;7072;-72
2021/12/30 12:42:53;;;;;;;;;;;;;;;19.86;56.98;100524.03;4958758;28;6879;-72
2021/12/30 12:45:35;;;;;;;;;;;;;;;19.84;57.27;100537.00;4973174;28;7016;-72
2021/12/30 12:48:25;;;;;;;;;;;;;;;19.82;57.81;100533.53;4957117;28;7862;-72
2021/12/30 12:50:53;;;;;;;;;;;;;;;19.79;57.42;100537.81;4948535;28;6832;-72
2021/12/30 12:53:26;;;;;;;;;;;;;;;19.77;57.63;100539.53;4954474;28;6887;-72
2021/12/30 12:56:00;;;;;;;;;;;;;;;19.74;57.72;100545.56;4958661;28;6833;-72
2021/12/30 12:58:30;;;;;;;;;;;;;;;19.71;57.76;100555.94;4953143;28;7788;-72